sensor_id;sensor_type;location;lat;lon;timestamp;pressure;altitude;pressure_sealevel;temperature;humidity
38054;BME280;23859;50.672;7.164;2024-02-28T00:00:29;36145.25;;;-140.95;77.96
38054;BME280;23859;50.672;7.164;2024-02-28T00:02:55;36185.44;;;-140.95;77.33
38054;BME280;23859;50.672;7.164;2024-02-28T00:05:21;36139.22;;;-140.95;78.21
38054;BME280;23859;50.672;7.164;2024-02-28T00:07:47;36139.22;;;-140.95;78.47
38054;BME280;23859;50.672;7.164;2024-02-28T00:10:14;36151.28;;;-140.95;77.69
38054;BME280;23859;50.672;7.164;2024-02-28T00:12:40;36137.22;;;-140.95;78.88
38054;BME280;23859;50.672;7.164;2024-02-28T00:15:06;36149.28;;;-140.95;79.55
38054;BME280;23859;50.672;7.164;2024-02-28T00:17:39;36161.31;;;-140.95;78.67
38054;BME280;23859;50.672;7.164;2024-02-28T00:20:09;36177.41;;;-140.95;79.28
38054;BME280;23859;50.672;7.164;2024-02-28T00:22:36;36141.22;;;-140.95;77.72
38054;BME280;23859;50.672;7.164;2024-02-28T00:25:05;36165.34;;;-140.95;77.19
38054;BME280;23859;50.672;7.164;2024-02-28T00:27:33;36141.22;;;-140.95;76.71
38054;BME280;23859;50.672;7.164;2024-02-28T00:29:59;36153.28;;;-140.95;77.96
38054;BME280;23859;50.672;7.164;2024-02-28T00:32:25;36175.41;;;-140.95;78.06
38054;BME280;23859;50.672;7.164;2024-02-28T00:34:51;36149.28;;;-140.95;79.09
38054;BME280;23859;50.672;7.164;2024-02-28T00:37:17;36181.41;;;-140.95;78.21
38054;BME280;23859;50.672;7.164;2024-02-28T00:39:46;36137.22;;;-140.95;78.78
38054;BME280;23859;50.672;7.164;2024-02-28T00:42:12;36145.25;;;-140.95;78.82
38054;BME280;23859;50.672;7.164;2024-02-28T00:44:38;36179.41;;;-140.95;77.62
38054;BME280;23859;50.672;7.164;2024-02-28T00:47:08;36141.22;;;-140.95;77.92
38054;BME280;23859;50.672;7.164;2024-02-28T00:49:34;36157.31;;;-140.95;77.30
38054;BME280;23859;50.672;7.164;2024-02-28T00:52:01;36129.19;;;-140.95;75.81
38054;BME280;23859;50.672;7.164;2024-02-28T00:54:27;36153.28;;;-140.95;76.01
38054;BME280;23859;50.672;7.164;2024-02-28T00:56:53;36121.13;;;-140.95;76.30
38054;BME280;23859;50.672;7.164;2024-02-28T00:59:19;36163.34;;;-140.95;76.47
38054;BME280;23859;50.672;7.164;2024-02-28T01:01:45;36127.16;;;-140.95;76.64
38054;BME280;23859;50.672;7.164;2024-02-28T01:04:13;36129.19;;;-140.95;77.20
38054;BME280;23859;50.672;7.164;2024-02-28T01:06:39;36139.22;;;-140.95;77.45
38054;BME280;23859;50.672;7.164;2024-02-28T01:09:05;36129.19;;;-140.95;77.05
38054;BME280;23859;50.672;7.164;2024-02-28T01:11:31;36111.09;;;-140.95;76.62
38054;BME280;23859;50.672;7.164;2024-02-28T01:13:57;36125.16;;;-140.95;77.37
38054;BME280;23859;50.672;7.164;2024-02-28T01:16:23;36143.25;;;-140.95;77.17
38054;BME280;23859;50.672;7.164;2024-02-28T01:18:51;36147.25;;;-140.95;75.89
38054;BME280;23859;50.672;7.164;2024-02-28T01:21:17;36151.28;;;-140.95;76.61
38054;BME280;23859;50.672;7.164;2024-02-28T01:23:43;36117.13;;;-140.95;75.91
38054;BME280;23859;50.672;7.164;2024-02-28T01:26:09;36141.22;;;-140.95;75.40
38054;BME280;23859;50.672;7.164;2024-02-28T01:28:35;36428.59;;;-140.95;76.58
38054;BME280;23859;50.672;7.164;2024-02-28T01:31:01;36125.16;;;-140.95;76.48
38054;BME280;23859;50.672;7.164;2024-02-28T01:33:27;36173.38;;;-140.95;77.04
38054;BME280;23859;50.672;7.164;2024-02-28T01:35:53;36185.44;;;-140.95;76.48
38054;BME280;23859;50.672;7.164;2024-02-28T01:38:20;36167.34;;;-140.95;77.22
38054;BME280;23859;50.672;7.164;2024-02-28T01:40:46;36153.28;;;-140.95;76.98
38054;BME280;23859;50.672;7.164;2024-02-28T01:43:13;36129.19;;;-140.95;77.60
38054;BME280;23859;50.672;7.164;2024-02-28T01:45:39;36135.22;;;-140.95;76.30
38054;BME280;23859;50.672;7.164;2024-02-28T01:48:08;36109.09;;;-140.95;76.56
38054;BME280;23859;50.672;7.164;2024-02-28T01:50:36;36137.22;;;-140.95;75.22
38054;BME280;23859;50.672;7.164;2024-02-28T01:53:03;36143.25;;;-140.95;74.93
38054;BME280;23859;50.672;7.164;2024-02-28T01:55:30;36157.31;;;-140.95;76.25
38054;BME280;23859;50.672;7.164;2024-02-28T01:57:57;36145.25;;;-140.95;76.43
38054;BME280;23859;50.672;7.164;2024-02-28T02:00:23;36157.31;;;-140.95;76.72
38054;BME280;23859;50.672;7.164;2024-02-28T02:02:50;36121.13;;;-140.95;76.22
38054;BME280;23859;50.672;7.164;2024-02-28T02:05:16;36135.22;;;-140.95;76.02
38054;BME280;23859;50.672;7.164;2024-02-28T02:07:48;36145.25;;;-140.95;74.38
38054;BME280;23859;50.672;7.164;2024-02-28T02:10:14;36143.25;;;-140.95;75.43
38054;BME280;23859;50.672;7.164;2024-02-28T02:12:40;36149.28;;;-140.95;76.76
38054;BME280;23859;50.672;7.164;2024-02-28T02:15:06;36177.41;;;-140.95;77.04
38054;BME280;23859;50.672;7.164;2024-02-28T02:17:33;36137.22;;;-140.95;77.37
38054;BME280;23859;50.672;7.164;2024-02-28T02:19:59;36133.19;;;-140.95;76.88
38054;BME280;23859;50.672;7.164;2024-02-28T02:24:54;36177.41;;;-140.95;75.29
38054;BME280;23859;50.672;7.164;2024-02-28T02:27:20;36149.28;;;-140.95;74.43
38054;BME280;23859;50.672;7.164;2024-02-28T02:29:46;36418.53;;;-140.95;74.71
38054;BME280;23859;50.672;7.164;2024-02-28T02:32:12;36143.25;;;-140.95;75.95
38054;BME280;23859;50.672;7.164;2024-02-28T02:34:38;36153.28;;;-140.95;75.64
38054;BME280;23859;50.672;7.164;2024-02-28T02:37:04;36161.31;;;-140.95;76.43
38054;BME280;23859;50.672;7.164;2024-02-28T02:39:34;36143.25;;;-140.95;75.59
38054;BME280;23859;50.672;7.164;2024-02-28T02:42:00;36139.22;;;-140.95;74.46
38054;BME280;23859;50.672;7.164;2024-02-28T02:44:26;36149.28;;;-140.95;74.67
38054;BME280;23859;50.672;7.164;2024-02-28T02:46:52;36159.31;;;-140.95;75.29
38054;BME280;23859;50.672;7.164;2024-02-28T02:49:18;36149.28;;;-140.95;76.62
38054;BME280;23859;50.672;7.164;2024-02-28T02:51:44;36139.22;;;-140.95;75.48
38054;BME280;23859;50.672;7.164;2024-02-28T02:54:13;36167.34;;;-140.95;74.49
38054;BME280;23859;50.672;7.164;2024-02-28T02:56:42;36137.22;;;-140.95;73.98
38054;BME280;23859;50.672;7.164;2024-02-28T02:59:11;36133.19;;;-140.95;74.65
38054;BME280;23859;50.672;7.164;2024-02-28T03:01:38;36137.22;;;-140.95;74.48
38054;BME280;23859;50.672;7.164;2024-02-28T03:04:04;36139.22;;;-140.95;73.84
38054;BME280;23859;50.672;7.164;2024-02-28T03:06:30;36173.38;;;-140.95;74.93
38054;BME280;23859;50.672;7.164;2024-02-28T03:08:58;36173.38;;;-140.95;75.61
38054;BME280;23859;50.672;7.164;2024-02-28T03:11:24;36219.59;;;-140.95;76.25
38054;BME280;23859;50.672;7.164;2024-02-28T03:13:50;36125.16;;;-140.95;76.73
38054;BME280;23859;50.672;7.164;2024-02-28T03:16:16;36187.44;;;-140.95;76.18
38054;BME280;23859;50.672;7.164;2024-02-28T03:18:43;36165.34;;;-140.95;75.99
38054;BME280;23859;50.672;7.164;2024-02-28T03:21:09;36161.31;;;-140.95;75.83
38054;BME280;23859;50.672;7.164;2024-02-28T03:23:35;36149.28;;;-140.95;75.59
38054;BME280;23859;50.672;7.164;2024-02-28T03:26:02;36177.41;;;-140.95;75.09
38054;BME280;23859;50.672;7.164;2024-02-28T03:28:29;36167.34;;;-140.95;75.33
38054;BME280;23859;50.672;7.164;2024-02-28T03:30:55;36183.44;;;-140.95;75.34
38054;BME280;23859;50.672;7.164;2024-02-28T03:33:21;36141.22;;;-140.95;75.03
38054;BME280;23859;50.672;7.164;2024-02-28T03:35:47;36197.50;;;-140.95;75.27
38054;BME280;23859;50.672;7.164;2024-02-28T03:38:13;36181.41;;;-140.95;75.04
38054;BME280;23859;50.672;7.164;2024-02-28T03:40:40;36189.47;;;-140.95;75.09
38054;BME280;23859;50.672;7.164;2024-02-28T03:43:06;36185.44;;;-140.95;75.78
38054;BME280;23859;50.672;7.164;2024-02-28T03:45:37;36175.41;;;-140.95;76.21
38054;BME280;23859;50.672;7.164;2024-02-28T03:48:04;36181.41;;;-140.95;75.80
38054;BME280;23859;50.672;7.164;2024-02-28T03:50:30;36181.41;;;-140.95;75.98
38054;BME280;23859;50.672;7.164;2024-02-28T03:52:56;36161.31;;;-140.95;75.96
38054;BME280;23859;50.672;7.164;2024-02-28T03:55:23;36187.44;;;-140.95;76.29
38054;BME280;23859;50.672;7.164;2024-02-28T03:57:49;36179.41;;;-140.95;75.91
38054;BME280;23859;50.672;7.164;2024-02-28T04:00:17;36155.31;;;-140.95;76.72
38054;BME280;23859;50.672;7.164;2024-02-28T04:02:43;36185.44;;;-140.95;76.24
38054;BME280;23859;50.672;7.164;2024-02-28T04:05:10;36173.38;;;-140.95;76.16
38054;BME280;23859;50.672;7.164;2024-02-28T04:07:37;36185.44;;;-140.95;75.21
38054;BME280;23859;50.672;7.164;2024-02-28T04:10:03;36165.34;;;-140.95;75.51
38054;BME280;23859;50.672;7.164;2024-02-28T04:12:31;36189.47;;;-140.95;74.42
38054;BME280;23859;50.672;7.164;2024-02-28T04:14:57;36165.34;;;-140.95;74.40
38054;BME280;23859;50.672;7.164;2024-02-28T04:17:23;36183.44;;;-140.95;75.43
38054;BME280;23859;50.672;7.164;2024-02-28T04:19:49;36191.47;;;-140.95;76.00
38054;BME280;23859;50.672;7.164;2024-02-28T04:22:15;36197.50;;;-140.95;76.60
38054;BME280;23859;50.672;7.164;2024-02-28T04:24:41;36185.44;;;-140.95;77.13
38054;BME280;23859;50.672;7.164;2024-02-28T04:27:07;36199.50;;;-140.95;76.98
38054;BME280;23859;50.672;7.164;2024-02-28T04:29:35;36199.50;;;-140.95;76.70
38054;BME280;23859;50.672;7.164;2024-02-28T04:32:01;36195.50;;;-140.95;76.73
38054;BME280;23859;50.672;7.164;2024-02-28T04:34:27;36193.47;;;-140.95;76.36
38054;BME280;23859;50.672;7.164;2024-02-28T04:36:53;36193.47;;;-140.95;76.06
38054;BME280;23859;50.672;7.164;2024-02-28T04:39:20;36169.38;;;-140.95;76.35
38054;BME280;23859;50.672;7.164;2024-02-28T04:41:46;36187.44;;;-140.95;75.53
38054;BME280;23859;50.672;7.164;2024-02-28T04:44:12;36191.47;;;-140.95;76.26
38054;BME280;23859;50.672;7.164;2024-02-28T04:46:38;36187.44;;;-140.95;75.68
38054;BME280;23859;50.672;7.164;2024-02-28T04:49:04;36179.41;;;-140.95;75.53
38054;BME280;23859;50.672;7.164;2024-02-28T04:51:30;36173.38;;;-140.95;73.85
38054;BME280;23859;50.672;7.164;2024-02-28T04:53:56;36193.47;;;-140.95;75.24
38054;BME280;23859;50.672;7.164;2024-02-28T04:56:23;36169.38;;;-140.95;74.51
38054;BME280;23859;50.672;7.164;2024-02-28T04:58:49;36165.34;;;-140.95;74.39
38054;BME280;23859;50.672;7.164;2024-02-28T05:01:15;36185.44;;;-140.95;75.38
38054;BME280;23859;50.672;7.164;2024-02-28T05:03:41;36149.28;;;-140.95;74.13
38054;BME280;23859;50.672;7.164;2024-02-28T05:06:07;36169.38;;;-140.95;72.98
38054;BME280;23859;50.672;7.164;2024-02-28T05:08:36;36159.31;;;-140.95;72.94
38054;BME280;23859;50.672;7.164;2024-02-28T05:11:02;36145.25;;;-140.95;73.31
38054;BME280;23859;50.672;7.164;2024-02-28T05:13:28;36181.41;;;-140.95;72.37
38054;BME280;23859;50.672;7.164;2024-02-28T05:15:54;36169.38;;;-140.95;72.51
38054;BME280;23859;50.672;7.164;2024-02-28T05:18:20;36167.34;;;-140.95;74.45
38054;BME280;23859;50.672;7.164;2024-02-28T05:20:46;36173.38;;;-140.95;74.72
38054;BME280;23859;50.672;7.164;2024-02-28T05:23:12;36209.56;;;-140.95;73.90
38054;BME280;23859;50.672;7.164;2024-02-28T05:25:38;36205.53;;;-140.95;74.47
38054;BME280;23859;50.672;7.164;2024-02-28T05:28:05;36163.34;;;-140.95;74.65
38054;BME280;23859;50.672;7.164;2024-02-28T05:30:31;36161.31;;;-140.95;75.08
38054;BME280;23859;50.672;7.164;2024-02-28T05:32:57;36177.41;;;-140.95;74.46
38054;BME280;23859;50.672;7.164;2024-02-28T05:35:23;36195.50;;;-140.95;75.64
38054;BME280;23859;50.672;7.164;2024-02-28T05:37:53;36165.34;;;-140.95;75.21
38054;BME280;23859;50.672;7.164;2024-02-28T05:40:20;36205.53;;;-140.95;74.48
38054;BME280;23859;50.672;7.164;2024-02-28T05:42:46;36201.50;;;-140.95;75.55
38054;BME280;23859;50.672;7.164;2024-02-28T05:45:12;36179.41;;;-140.95;76.05
38054;BME280;23859;50.672;7.164;2024-02-28T05:47:38;36193.47;;;-140.95;76.10
38054;BME280;23859;50.672;7.164;2024-02-28T05:50:05;36201.50;;;-140.95;76.73
38054;BME280;23859;50.672;7.164;2024-02-28T05:52:31;36177.41;;;-140.95;75.81
38054;BME280;23859;50.672;7.164;2024-02-28T05:54:57;36175.41;;;-140.95;75.79
38054;BME280;23859;50.672;7.164;2024-02-28T05:57:24;36181.41;;;-140.95;75.57
38054;BME280;23859;50.672;7.164;2024-02-28T05:59:50;36181.41;;;-140.95;74.93
38054;BME280;23859;50.672;7.164;2024-02-28T06:02:16;36175.41;;;-140.95;74.93
38054;BME280;23859;50.672;7.164;2024-02-28T06:04:42;36185.44;;;-140.95;74.62
38054;BME280;23859;50.672;7.164;2024-02-28T06:07:08;36175.41;;;-140.95;74.34
38054;BME280;23859;50.672;7.164;2024-02-28T06:09:34;36157.31;;;-140.95;74.90
38054;BME280;23859;50.672;7.164;2024-02-28T06:12:00;36185.44;;;-140.95;73.36
38054;BME280;23859;50.672;7.164;2024-02-28T06:14:27;36241.69;;;-140.95;75.18
38054;BME280;23859;50.672;7.164;2024-02-28T06:16:53;36181.41;;;-140.95;75.00
38054;BME280;23859;50.672;7.164;2024-02-28T06:19:19;36213.56;;;-140.95;75.06
38054;BME280;23859;50.672;7.164;2024-02-28T06:21:45;36197.50;;;-140.95;75.77
38054;BME280;23859;50.672;7.164;2024-02-28T06:24:11;36199.50;;;-140.95;75.86
38054;BME280;23859;50.672;7.164;2024-02-28T06:26:37;36189.47;;;-140.95;74.82
38054;BME280;23859;50.672;7.164;2024-02-28T06:29:03;36189.47;;;-140.95;74.29
38054;BME280;23859;50.672;7.164;2024-02-28T06:31:32;36207.53;;;-140.95;75.04
38054;BME280;23859;50.672;7.164;2024-02-28T06:33:58;36181.41;;;-140.95;75.04
38054;BME280;23859;50.672;7.164;2024-02-28T06:36:25;36207.53;;;-140.95;74.61
38054;BME280;23859;50.672;7.164;2024-02-28T06:38:51;36211.56;;;-140.95;74.90
38054;BME280;23859;50.672;7.164;2024-02-28T06:41:17;36169.38;;;-140.95;74.93
38054;BME280;23859;50.672;7.164;2024-02-28T06:43:43;36207.53;;;-140.95;74.16
38054;BME280;23859;50.672;7.164;2024-02-28T06:46:11;36197.50;;;-140.95;73.32
38054;BME280;23859;50.672;7.164;2024-02-28T06:48:37;36201.50;;;-140.95;73.30
38054;BME280;23859;50.672;7.164;2024-02-28T06:51:03;36199.50;;;-140.95;73.05
38054;BME280;23859;50.672;7.164;2024-02-28T06:53:29;36201.50;;;-140.95;72.99
38054;BME280;23859;50.672;7.164;2024-02-28T06:55:55;36177.41;;;-140.95;73.76
38054;BME280;23859;50.672;7.164;2024-02-28T06:58:21;36510.97;;;-140.95;73.15
38054;BME280;23859;50.672;7.164;2024-02-28T07:00:50;36209.56;;;-140.95;73.42
38054;BME280;23859;50.672;7.164;2024-02-28T07:03:16;36583.31;;;-140.95;73.91
38054;BME280;23859;50.672;7.164;2024-02-28T07:05:42;36183.44;;;-140.95;72.89
38054;BME280;23859;50.672;7.164;2024-02-28T07:08:08;36189.47;;;-140.95;73.52
38054;BME280;23859;50.672;7.164;2024-02-28T07:10:36;36177.41;;;-140.95;73.43
38054;BME280;23859;50.672;7.164;2024-02-28T07:13:03;36209.56;;;-140.95;72.29
38054;BME280;23859;50.672;7.164;2024-02-28T07:15:29;36161.31;;;-140.95;72.49
38054;BME280;23859;50.672;7.164;2024-02-28T07:17:55;36199.50;;;-140.95;72.31
38054;BME280;23859;50.672;7.164;2024-02-28T07:20:21;36185.44;;;-140.95;72.88
38054;BME280;23859;50.672;7.164;2024-02-28T07:22:47;36173.38;;;-140.95;72.17
38054;BME280;23859;50.672;7.164;2024-02-28T07:25:13;36181.41;;;-140.95;71.88
38054;BME280;23859;50.672;7.164;2024-02-28T07:27:39;36169.38;;;-140.95;71.63
38054;BME280;23859;50.672;7.164;2024-02-28T07:30:05;36187.44;;;-140.95;70.63
38054;BME280;23859;50.672;7.164;2024-02-28T07:32:32;36135.22;;;-140.95;70.38
38054;BME280;23859;50.672;7.164;2024-02-28T07:35:01;36097.03;;;-140.95;70.57
38054;BME280;23859;50.672;7.164;2024-02-28T07:37:27;36129.19;;;-140.95;69.37
38054;BME280;23859;50.672;7.164;2024-02-28T07:39:53;36099.03;;;-140.95;68.58
38054;BME280;23859;50.672;7.164;2024-02-28T07:42:19;36093.00;;;-140.95;68.91
38054;BME280;23859;50.672;7.164;2024-02-28T07:44:45;36080.97;;;-140.95;68.23
38054;BME280;23859;50.672;7.164;2024-02-28T07:47:11;36141.22;;;-140.95;69.02
38054;BME280;23859;50.672;7.164;2024-02-28T07:49:37;36141.22;;;-140.95;68.79
38054;BME280;23859;50.672;7.164;2024-02-28T07:52:03;36129.19;;;-140.95;68.49
38054;BME280;23859;50.672;7.164;2024-02-28T07:54:29;36117.13;;;-140.95;69.33
38054;BME280;23859;50.672;7.164;2024-02-28T07:56:55;36105.06;;;-140.95;66.77
38054;BME280;23859;50.672;7.164;2024-02-28T07:59:21;36101.03;;;-140.95;67.17
38054;BME280;23859;50.672;7.164;2024-02-28T08:01:48;36153.28;;;-140.95;68.06
38054;BME280;23859;50.672;7.164;2024-02-28T08:04:14;36103.06;;;-140.95;68.14
38054;BME280;23859;50.672;7.164;2024-02-28T08:06:41;36121.13;;;-140.95;69.32
38054;BME280;23859;50.672;7.164;2024-02-28T08:09:07;36157.31;;;-140.95;69.53
38054;BME280;23859;50.672;7.164;2024-02-28T08:11:33;36117.13;;;-140.95;69.51
38054;BME280;23859;50.672;7.164;2024-02-28T08:13:59;36111.09;;;-140.95;69.54
38054;BME280;23859;50.672;7.164;2024-02-28T08:16:25;36101.03;;;-140.95;68.86
38054;BME280;23859;50.672;7.164;2024-02-28T08:18:51;36149.28;;;-140.95;69.74
38054;BME280;23859;50.672;7.164;2024-02-28T08:21:17;36101.03;;;-140.95;68.85
38054;BME280;23859;50.672;7.164;2024-02-28T08:23:44;36052.81;;;-140.95;66.80
38054;BME280;23859;50.672;7.164;2024-02-28T08:26:11;36044.78;;;-140.95;65.23
38054;BME280;23859;50.672;7.164;2024-02-28T08:28:37;36084.97;;;-140.95;65.84
38054;BME280;23859;50.672;7.164;2024-02-28T08:31:03;36086.97;;;-140.95;65.30
38054;BME280;23859;50.672;7.164;2024-02-28T08:33:29;36068.91;;;-140.95;65.64
38054;BME280;23859;50.672;7.164;2024-02-28T08:35:56;36119.13;;;-140.95;66.20
38054;BME280;23859;50.672;7.164;2024-02-28T08:38:23;36062.88;;;-140.95;66.85
38054;BME280;23859;50.672;7.164;2024-02-28T08:40:49;36044.78;;;-140.95;65.32
38054;BME280;23859;50.672;7.164;2024-02-28T08:43:15;36078.94;;;-140.95;64.41
38054;BME280;23859;50.672;7.164;2024-02-28T08:45:41;36062.88;;;-140.95;63.40
38054;BME280;23859;50.672;7.164;2024-02-28T08:48:07;36036.75;;;-140.95;63.96
38054;BME280;23859;50.672;7.164;2024-02-28T08:50:33;36032.72;;;-140.95;63.52
38054;BME280;23859;50.672;7.164;2024-02-28T08:53:00;36074.94;;;-140.95;64.26
38054;BME280;23859;50.672;7.164;2024-02-28T08:55:26;36028.72;;;-140.95;62.39
38054;BME280;23859;50.672;7.164;2024-02-28T08:57:52;36046.78;;;-140.95;64.20
38054;BME280;23859;50.672;7.164;2024-02-28T09:00:18;36004.59;;;-140.95;61.66
38054;BME280;23859;50.672;7.164;2024-02-28T09:02:44;35986.53;;;-140.95;61.10
38054;BME280;23859;50.672;7.164;2024-02-28T09:05:10;35964.41;;;-140.95;61.74
38054;BME280;23859;50.672;7.164;2024-02-28T09:07:36;35880.03;;;-140.95;60.33
38054;BME280;23859;50.672;7.164;2024-02-28T09:10:05;35908.16;;;-140.95;55.88
38054;BME280;23859;50.672;7.164;2024-02-28T09:12:32;35932.28;;;-140.95;57.42
38054;BME280;23859;50.672;7.164;2024-02-28T09:14:58;35859.94;;;-140.95;55.97
38054;BME280;23859;50.672;7.164;2024-02-28T09:17:24;35851.91;;;-140.95;52.64
38054;BME280;23859;50.672;7.164;2024-02-28T09:19:50;35884.03;;;-140.95;52.70
38054;BME280;23859;50.672;7.164;2024-02-28T09:22:17;35900.13;;;-140.95;55.16
38054;BME280;23859;50.672;7.164;2024-02-28T09:24:43;35976.47;;;-140.95;59.88
38054;BME280;23859;50.672;7.164;2024-02-28T09:27:09;35944.31;;;-140.95;57.60
38054;BME280;23859;50.672;7.164;2024-02-28T09:29:35;35976.47;;;-140.95;57.83
38054;BME280;23859;50.672;7.164;2024-02-28T09:32:01;35976.47;;;-140.95;56.63
38054;BME280;23859;50.672;7.164;2024-02-28T09:34:28;35964.41;;;-140.95;57.87
38054;BME280;23859;50.672;7.164;2024-02-28T09:36:54;35902.13;;;-140.95;56.67
38054;BME280;23859;50.672;7.164;2024-02-28T09:39:20;35861.94;;;-140.95;56.10
38054;BME280;23859;50.672;7.164;2024-02-28T09:41:48;35803.69;;;-140.95;53.72
38054;BME280;23859;50.672;7.164;2024-02-28T09:44:17;35739.38;;;-140.95;50.64
38054;BME280;23859;50.672;7.164;2024-02-28T09:46:44;35717.28;;;-140.95;47.96
38054;BME280;23859;50.672;7.164;2024-02-28T09:49:11;35715.28;;;-140.95;48.93
38054;BME280;23859;50.672;7.164;2024-02-28T09:51:37;35606.78;;;-140.95;45.07
38054;BME280;23859;50.672;7.164;2024-02-28T09:54:04;35596.75;;;-140.95;44.58
38054;BME280;23859;50.672;7.164;2024-02-28T09:56:31;35675.09;;;-140.95;47.14
38054;BME280;23859;50.672;7.164;2024-02-28T09:58:57;35755.47;;;-140.95;48.15
38054;BME280;23859;50.672;7.164;2024-02-28T10:01:26;35813.72;;;-140.95;49.40
38054;BME280;23859;50.672;7.164;2024-02-28T10:03:53;35737.38;;;-140.95;47.99
38054;BME280;23859;50.672;7.164;2024-02-28T10:06:20;35659.03;;;-140.95;46.32
38054;BME280;23859;50.672;7.164;2024-02-28T10:08:46;35759.47;;;-140.95;48.41
38054;BME280;23859;50.672;7.164;2024-02-28T10:11:21;35747.41;;;-140.95;49.40
38054;BME280;23859;50.672;7.164;2024-02-28T10:13:48;35671.06;;;-140.95;46.47
38054;BME280;23859;50.672;7.164;2024-02-28T10:16:14;35612.81;;;-140.95;45.47
38054;BME280;23859;50.672;7.164;2024-02-28T10:18:44;35648.97;;;-140.95;47.05
38054;BME280;23859;50.672;7.164;2024-02-28T10:21:10;35564.59;;;-140.95;43.81
38054;BME280;23859;50.672;7.164;2024-02-28T10:23:41;35510.34;;;-140.95;42.78
38054;BME280;23859;50.672;7.164;2024-02-28T10:26:10;35421.94;;;-140.95;41.33
38054;BME280;23859;50.672;7.164;2024-02-28T10:28:39;35468.16;;;-140.95;40.55
38054;BME280;23859;50.672;7.164;2024-02-28T10:31:06;35313.47;;;-140.95;38.31
38054;BME280;23859;50.672;7.164;2024-02-28T10:33:33;35281.31;;;-140.95;37.80
38054;BME280;23859;50.672;7.164;2024-02-28T10:36:03;35301.41;;;-140.95;37.38
38054;BME280;23859;50.672;7.164;2024-02-28T10:38:31;35188.91;;;-140.95;36.66
38054;BME280;23859;50.672;7.164;2024-02-28T10:41:02;35176.88;;;-140.95;35.53
38054;BME280;23859;50.672;7.164;2024-02-28T10:43:29;35136.69;;;-140.95;34.25
38054;BME280;23859;50.672;7.164;2024-02-28T10:45:58;35158.78;;;-140.95;34.94
38054;BME280;23859;50.672;7.164;2024-02-28T10:48:25;35265.25;;;-140.95;36.77
38054;BME280;23859;50.672;7.164;2024-02-28T10:50:52;35052.31;;;-140.95;34.07
38054;BME280;23859;50.672;7.164;2024-02-28T10:53:22;35184.91;;;-140.95;34.88
38054;BME280;23859;50.672;7.164;2024-02-28T10:55:49;35293.38;;;-140.95;35.97
38054;BME280;23859;50.672;7.164;2024-02-28T10:58:17;35377.75;;;-140.95;39.79
38054;BME280;23859;50.672;7.164;2024-02-28T11:00:44;35227.09;;;-140.95;36.08
38054;BME280;23859;50.672;7.164;2024-02-28T11:03:12;35142.72;;;-140.95;34.29
38054;BME280;23859;50.672;7.164;2024-02-28T11:05:40;35110.56;;;-140.95;33.42
38054;BME280;23859;50.672;7.164;2024-02-28T11:08:10;34988.03;;;-140.95;31.77
38054;BME280;23859;50.672;7.164;2024-02-28T11:10:41;35112.59;;;-140.95;33.19
38054;BME280;23859;50.672;7.164;2024-02-28T11:13:22;35279.31;;;-140.95;36.02
38054;BME280;23859;50.672;7.164;2024-02-28T11:15:48;35229.09;;;-140.95;35.31
38054;BME280;23859;50.672;7.164;2024-02-28T11:18:14;35261.25;;;-140.95;35.98
38054;BME280;23859;50.672;7.164;2024-02-28T11:20:40;35341.59;;;-140.95;36.36
38054;BME280;23859;50.672;7.164;2024-02-28T11:23:07;35361.69;;;-140.95;37.13
38054;BME280;23859;50.672;7.164;2024-02-28T11:25:34;35466.16;;;-140.95;40.28
38054;BME280;23859;50.672;7.164;2024-02-28T11:28:00;35413.91;;;-140.95;37.78
38054;BME280;23859;50.672;7.164;2024-02-28T11:30:27;35411.91;;;-140.95;38.04
38054;BME280;23859;50.672;7.164;2024-02-28T11:32:56;35580.66;;;-140.95;41.49
38054;BME280;23859;50.672;7.164;2024-02-28T11:35:25;35588.69;;;-140.95;41.45
38054;BME280;23859;50.672;7.164;2024-02-28T11:37:52;35590.72;;;-140.95;42.46
38054;BME280;23859;50.672;7.164;2024-02-28T11:40:23;35640.94;;;-140.95;45.86
38054;BME280;23859;50.672;7.164;2024-02-28T11:42:51;35560.56;;;-140.95;42.58
38054;BME280;23859;50.672;7.164;2024-02-28T11:45:17;35661.03;;;-140.95;45.87
38054;BME280;23859;50.672;7.164;2024-02-28T11:47:44;35655.00;;;-140.95;45.12
38054;BME280;23859;50.672;7.164;2024-02-28T11:50:11;35626.88;;;-140.95;45.62
38054;BME280;23859;50.672;7.164;2024-02-28T11:52:37;35550.53;;;-140.95;44.07
38054;BME280;23859;50.672;7.164;2024-02-28T11:55:04;35466.16;;;-140.95;40.00
38054;BME280;23859;50.672;7.164;2024-02-28T11:57:30;35321.50;;;-140.95;37.15
38054;BME280;23859;50.672;7.164;2024-02-28T12:00:08;35158.78;;;-140.95;35.56
38054;BME280;23859;50.672;7.164;2024-02-28T12:02:40;35164.81;;;-140.95;34.59
38054;BME280;23859;50.672;7.164;2024-02-28T12:05:06;35293.38;;;-140.95;36.51
38054;BME280;23859;50.672;7.164;2024-02-28T12:07:33;35452.09;;;-140.95;37.53
38054;BME280;23859;50.672;7.164;2024-02-28T12:09:59;35504.31;;;-140.95;41.42
38054;BME280;23859;50.672;7.164;2024-02-28T12:12:27;35490.25;;;-140.95;39.25
38054;BME280;23859;50.672;7.164;2024-02-28T12:14:53;35486.25;;;-140.95;39.27
38054;BME280;23859;50.672;7.164;2024-02-28T12:17:25;35413.91;;;-140.95;40.37
38054;BME280;23859;50.672;7.164;2024-02-28T12:19:52;35397.84;;;-140.95;38.27
38054;BME280;23859;50.672;7.164;2024-02-28T12:22:18;35393.81;;;-140.95;38.53
38054;BME280;23859;50.672;7.164;2024-02-28T12:24:44;35514.38;;;-140.95;39.37
38054;BME280;23859;50.672;7.164;2024-02-28T12:27:10;35618.84;;;-140.95;43.32
38054;BME280;23859;50.672;7.164;2024-02-28T12:29:36;35574.63;;;-140.95;40.69
38054;BME280;23859;50.672;7.164;2024-02-28T12:32:03;35522.41;;;-140.95;40.57
38054;BME280;23859;50.672;7.164;2024-02-28T12:34:29;35546.50;;;-140.95;41.26
38054;BME280;23859;50.672;7.164;2024-02-28T12:36:55;35440.03;;;-140.95;37.07
38054;BME280;23859;50.672;7.164;2024-02-28T12:39:21;35421.94;;;-140.95;36.55